My Ilona — VJN3432 — position and weather

sailwx.info

Track history (hours):
 
Tides and Currents Weather Stations Pressure Air Temp Water Temp Dewpoint Dewpoint Depression Visibility Wind Speed Wind Dir Waves Ship Positions

My Ilona

Last reported at 2017-Jun-14 08:22 UTC. Time now 2017-Jun-22 20:45 UTC.
Position N 37°46' E 015°14'.
Warning: this ship's position is 8 days out of date.

Length 74 m; draft 3.8 m.

Type: Pleasure craft. MMSI: 503514000.

Date/timePositionNaut miles runAvg speedWind from/ knotsBaromVisibWave heightAir tempDewpointWater temp
2017-Jun-14 08:22N 37°46' E 015°14'  
2017-Jun-10 10:53N 37°44' E 015°13'1 3.5
2017-Jun-10 10:30N 37°45' E 015°14'611.3
2017-Jun-10 10:00N 37°50' E 015°17'0 0.4
2017-Jun-10 09:25N 37°50' E 015°17'0 0.0
2017-Jun-10 09:00N 37°50' E 015°17'0 0.0
2017-Jun-10 08:30N 37°50' E 015°17'0 0.0
2017-Jun-10 07:02N 37°50' E 015°17'0 0.0
2017-Jun-10 06:50N 37°50' E 015°17'0 0.1
2017-Jun-10 06:29N 37°50' E 015°17'0 0.0
2017-Jun-10 05:55N 37°50' E 015°17'0 0.0
2017-Jun-10 05:30N 37°50' E 015°17'0 0.0
2017-Jun-10 05:00N 37°50' E 015°17'0 0.0
2017-Jun-10 03:54N 37°50' E 015°17'0 0.0
2017-Jun-10 03:27N 37°50' E 015°17'0 0.0
2017-Jun-10 03:00N 37°50' E 015°17'0 0.0
2017-Jun-10 02:16N 37°50' E 015°17'0 0.0
2017-Jun-10 02:00N 37°50' E 015°17'0 0.0
2017-Jun-10 01:26N 37°50' E 015°17'0 0.0
2017-Jun-10 00:58N 37°50' E 015°17'0 0.0
2017-Jun-10 00:26N 37°50' E 015°17'0 0.0
2017-Jun-09 23:49N 37°50' E 015°17'0 0.0
2017-Jun-09 23:29N 37°50' E 015°17'0 0.0
2017-Jun-09 22:41N 37°50' E 015°17'0 0.1
2017-Jun-09 22:31N 37°50' E 015°17'0 0.0
2017-Jun-09 21:58N 37°50' E 015°17'0 0.0
2017-Jun-09 21:30N 37°50' E 015°17'0 0.0
2017-Jun-09 20:42N 37°50' E 015°17'0 0.1
2017-Jun-09 20:24N 37°50' E 015°17'0 0.4
2017-Jun-09 20:00N 37°50' E 015°17'4 7.6
2017-Jun-09 19:25N 37°46' E 015°20'3 7.2
2017-Jun-09 19:00N 37°44' E 015°22'1 1.6
2017-Jun-09 18:23N 37°43' E 015°21'3 8.5
2017-Jun-09 18:01N 37°46' E 015°19'4 4.9
2017-Jun-09 17:13N 37°50' E 015°17'0 1.7
2017-Jun-09 16:59N 37°50' E 015°17'4 0.6
2017-Jun-09 10:09N 37°47' E 015°21'1 0.1
2017-Jun-08 11:37N 37°46' E 015°21'614.4
2017-Jun-08 11:13N 37°47' E 015°28'514.5
2017-Jun-08 10:52N 37°48' E 015°34'714.1
2017-Jun-08 10:24N 37°49' E 015°43'714.3
2017-Jun-08 09:54N 37°51' E 015°52'93 2.1
2017-Jun-06 13:57N 38°46' E 017°27'715.3
2017-Jun-06 13:29N 38°40' E 017°21'17813.5
2017-Jun-06 00:20N 36°35' E 014°41'516.0
2017-Jun-06 00:00N 36°37' E 014°35'816.0
2017-Jun-05 23:30N 36°39' E 014°25'815.7
2017-Jun-05 23:00N 36°41' E 014°15'815.5
2017-Jun-05 22:30N 36°43' E 014°06'815.6
2017-Jun-05 22:00N 36°45' E 013°57'1815.3
2017-Jun-05 20:51N 36°49' E 013°35'5415.0
2017-Jun-05 17:14N 37°03' E 012°30'715.6
2017-Jun-05 16:48N 37°05' E 012°22'615.2
2017-Jun-05 16:25N 37°06' E 012°15'714.7
2017-Jun-05 15:56N 37°08' E 012°06'1014.9
2017-Jun-05 15:16N 37°11' E 011°54'414.6
2017-Jun-05 14:58N 37°12' E 011°49'1414.7
2017-Jun-05 14:00N 37°15' E 011°31'714.9
2017-Jun-05 13:30N 37°17' E 011°22'914.7
2017-Jun-05 12:55N 37°20' E 011°12'714.5
2017-Jun-05 12:26N 37°23' E 011°04'914.6
2017-Jun-05 11:49N 37°26' E 010°53'13915.0
2017-Jun-05 02:31N 37°58' E 008°02'016.1
2017-Jun-05 02:30N 37°58' E 008°01'1615.2
2017-Jun-05 01:25N 38°03' E 007°42'1014.9
2017-Jun-05 00:46N 38°06' E 007°30'414.7
2017-Jun-05 00:29N 38°07' E 007°25'714.9
2017-Jun-05 00:00N 38°09' E 007°16'915.2
2017-Jun-04 23:23N 38°12' E 007°05'615.0
2017-Jun-04 23:00N 38°14' E 006°58'815.1
2017-Jun-04 22:29N 38°17' E 006°48'1614.8
2017-Jun-04 21:22N 38°22' E 006°28'614.6
2017-Jun-04 20:59N 38°23' E 006°21'814.6
2017-Jun-04 20:27N 38°26' E 006°12'814.6
2017-Jun-04 19:55N 38°28' E 006°03'814.5
2017-Jun-04 19:21N 38°31' E 005°53'614.5
2017-Jun-04 18:55N 38°33' E 005°45'614.4
2017-Jun-04 18:30N 38°34' E 005°38'714.4
2017-Jun-04 18:00N 38°37' E 005°29'714.5
2017-Jun-04 17:30N 38°39' E 005°20'9414.9
2017-Jun-04 11:13N 39°08' E 003°26'314.8
2017-Jun-04 10:59N 39°09' E 003°22'714.7
2017-Jun-04 10:30N 39°11' E 003°13'714.3
2017-Jun-04 10:00N 39°13' E 003°04'714.1
2017-Jun-04 09:30N 39°17' E 002°56'713.9
2017-Jun-04 09:00N 39°20' E 002°48'714.1
2017-Jun-04 08:30N 39°25' E 002°42'  
Track history (hours):
 
Tides and Currents Weather Stations Pressure Air Temp Water Temp Dewpoint Dewpoint Depression Visibility Wind Speed Wind Dir Waves Ship Positions

My Ilona

Last reported at 2017-Jun-14 08:22 UTC. Time now 2017-Jun-22 20:45 UTC.
Position N 37°46' E 015°14'.
Warning: this ship's position is 8 days out of date.

Length 74 m; draft 3.8 m.

Type: Pleasure craft. MMSI: 503514000.

Date/timePositionNaut miles runAvg speedWind from/ knotsBaromVisibWave heightAir tempDewpointWater temp
2017-Jun-14 08:22N 37°46' E 015°14'  
2017-Jun-10 10:53N 37°44' E 015°13'1 3.5
2017-Jun-10 10:30N 37°45' E 015°14'611.3
2017-Jun-10 10:00N 37°50' E 015°17'0 0.4
2017-Jun-10 09:25N 37°50' E 015°17'0 0.0
2017-Jun-10 09:00N 37°50' E 015°17'0 0.0
2017-Jun-10 08:30N 37°50' E 015°17'0 0.0
2017-Jun-10 07:02N 37°50' E 015°17'0 0.0
2017-Jun-10 06:50N 37°50' E 015°17'0 0.1
2017-Jun-10 06:29N 37°50' E 015°17'0 0.0
2017-Jun-10 05:55N 37°50' E 015°17'0 0.0
2017-Jun-10 05:30N 37°50' E 015°17'0 0.0
2017-Jun-10 05:00N 37°50' E 015°17'0 0.0
2017-Jun-10 03:54N 37°50' E 015°17'0 0.0
2017-Jun-10 03:27N 37°50' E 015°17'0 0.0
2017-Jun-10 03:00N 37°50' E 015°17'0 0.0
2017-Jun-10 02:16N 37°50' E 015°17'0 0.0
2017-Jun-10 02:00N 37°50' E 015°17'0 0.0
2017-Jun-10 01:26N 37°50' E 015°17'0 0.0
2017-Jun-10 00:58N 37°50' E 015°17'0 0.0
2017-Jun-10 00:26N 37°50' E 015°17'0 0.0
2017-Jun-09 23:49N 37°50' E 015°17'0 0.0
2017-Jun-09 23:29N 37°50' E 015°17'0 0.0
2017-Jun-09 22:41N 37°50' E 015°17'0 0.1
2017-Jun-09 22:31N 37°50' E 015°17'0 0.0
2017-Jun-09 21:58N 37°50' E 015°17'0 0.0
2017-Jun-09 21:30N 37°50' E 015°17'0 0.0
2017-Jun-09 20:42N 37°50' E 015°17'0 0.1
2017-Jun-09 20:24N 37°50' E 015°17'0 0.4
2017-Jun-09 20:00N 37°50' E 015°17'4 7.6
2017-Jun-09 19:25N 37°46' E 015°20'3 7.2
2017-Jun-09 19:00N 37°44' E 015°22'1 1.6
2017-Jun-09 18:23N 37°43' E 015°21'3 8.5
2017-Jun-09 18:01N 37°46' E 015°19'4 4.9
2017-Jun-09 17:13N 37°50' E 015°17'0 1.7
2017-Jun-09 16:59N 37°50' E 015°17'4 0.6
2017-Jun-09 10:09N 37°47' E 015°21'1 0.1
2017-Jun-08 11:37N 37°46' E 015°21'614.4
2017-Jun-08 11:13N 37°47' E 015°28'514.5
2017-Jun-08 10:52N 37°48' E 015°34'714.1
2017-Jun-08 10:24N 37°49' E 015°43'714.3
2017-Jun-08 09:54N 37°51' E 015°52'93 2.1
2017-Jun-06 13:57N 38°46' E 017°27'715.3
2017-Jun-06 13:29N 38°40' E 017°21'17813.5
2017-Jun-06 00:20N 36°35' E 014°41'516.0
2017-Jun-06 00:00N 36°37' E 014°35'816.0
2017-Jun-05 23:30N 36°39' E 014°25'815.7
2017-Jun-05 23:00N 36°41' E 014°15'815.5
2017-Jun-05 22:30N 36°43' E 014°06'815.6
2017-Jun-05 22:00N 36°45' E 013°57'1815.3
2017-Jun-05 20:51N 36°49' E 013°35'5415.0
2017-Jun-05 17:14N 37°03' E 012°30'715.6
2017-Jun-05 16:48N 37°05' E 012°22'615.2
2017-Jun-05 16:25N 37°06' E 012°15'714.7
2017-Jun-05 15:56N 37°08' E 012°06'1014.9
2017-Jun-05 15:16N 37°11' E 011°54'414.6
2017-Jun-05 14:58N 37°12' E 011°49'1414.7
2017-Jun-05 14:00N 37°15' E 011°31'714.9
2017-Jun-05 13:30N 37°17' E 011°22'914.7
2017-Jun-05 12:55N 37°20' E 011°12'714.5
2017-Jun-05 12:26N 37°23' E 011°04'914.6
2017-Jun-05 11:49N 37°26' E 010°53'13915.0
2017-Jun-05 02:31N 37°58' E 008°02'016.1
2017-Jun-05 02:30N 37°58' E 008°01'1615.2
2017-Jun-05 01:25N 38°03' E 007°42'1014.9
2017-Jun-05 00:46N 38°06' E 007°30'414.7
2017-Jun-05 00:29N 38°07' E 007°25'714.9
2017-Jun-05 00:00N 38°09' E 007°16'915.2
2017-Jun-04 23:23N 38°12' E 007°05'615.0
2017-Jun-04 23:00N 38°14' E 006°58'815.1
2017-Jun-04 22:29N 38°17' E 006°48'1614.8
2017-Jun-04 21:22N 38°22' E 006°28'614.6
2017-Jun-04 20:59N 38°23' E 006°21'814.6
2017-Jun-04 20:27N 38°26' E 006°12'814.6
2017-Jun-04 19:55N 38°28' E 006°03'814.5
2017-Jun-04 19:21N 38°31' E 005°53'614.5
2017-Jun-04 18:55N 38°33' E 005°45'614.4
2017-Jun-04 18:30N 38°34' E 005°38'714.4
2017-Jun-04 18:00N 38°37' E 005°29'714.5
2017-Jun-04 17:30N 38°39' E 005°20'9414.9
2017-Jun-04 11:13N 39°08' E 003°26'314.8
2017-Jun-04 10:59N 39°09' E 003°22'714.7
2017-Jun-04 10:30N 39°11' E 003°13'714.3
2017-Jun-04 10:00N 39°13' E 003°04'714.1
2017-Jun-04 09:30N 39°17' E 002°56'713.9
2017-Jun-04 09:00N 39°20' E 002°48'714.1
2017-Jun-04 08:30N 39°25' E 002°42'  

Dump ship's entire track history